Time;durP1;ratioP1;P1;durP2;ratioP2;P2;SDS_P1;SDS_P2;PMS_P1;PMS_P2;Temp;Humidity;BMP_temperature;BMP_pressure;BME280_temperature;BME280_humidity;BME280_pressure;Samples;Min_cycle;Max_cycle;Signal;HPM_P1;HPM_P2
2023/03/28 21:53:46;;;;;;;2.08;0.90;;;7.00;60.90;;;;;;4989904;28;20946;-70
2023/03/28 21:56:15;;;;;;;0.70;0.47;;;7.00;61.50;;;;;;4987636;28;20857;-70
2023/03/28 21:58:43;;;;;;;2.00;1.17;;;7.00;61.10;;;;;;4990555;28;20277;-70
2023/03/28 22:01:13;;;;;;;2.08;1.30;;;7.10;62.00;;;;;;4990619;28;20222;-70
2023/03/28 22:03:41;;;;;;;3.15;1.58;;;7.10;62.90;;;;;;4990814;28;20739;-70
2023/03/28 22:06:11;;;;;;;0.98;0.73;;;7.00;63.40;;;;;;4990174;28;20225;-71
2023/03/28 22:08:39;;;;;;;1.35;0.88;;;6.90;63.80;;;;;;4989613;28;20206;-71
2023/03/28 22:11:16;;;;;;;2.20;1.35;;;6.90;61.80;;;;;;4990656;28;20281;-71
2023/03/28 22:13:46;;;;;;;1.02;0.90;;;7.00;63.00;;;;;;4990484;28;20205;-70
2023/03/28 22:16:14;;;;;;;1.10;0.55;;;7.00;62.20;;;;;;4990014;28;20234;-70
2023/03/28 22:18:48;;;;;;;1.40;1.05;;;6.90;62.50;;;;;;4990788;28;20556;-71
2023/03/28 22:21:16;;;;;;;0.85;0.75;;;7.00;63.20;;;;;;4990626;28;20296;-70
2023/03/28 22:23:46;;;;;;;1.77;1.10;;;6.90;62.50;;;;;;4990086;28;20202;-70
2023/03/28 22:26:16;;;;;;;0.82;0.82;;;6.90;63.60;;;;;;4989904;28;20586;-70
2023/03/28 22:28:44;;;;;;;1.77;1.65;;;6.90;62.30;;;;;;4989686;28;20198;-69
2023/03/28 22:31:12;;;;;;;0.95;0.80;;;6.90;63.00;;;;;;4989177;28;20253;-70
2023/03/28 22:33:40;;;;;;;1.60;1.50;;;7.50;79.40;;;;;;4989502;28;20308;-70
2023/03/28 22:36:12;;;;;;;2.45;1.63;;;6.90;64.20;;;;;;4989783;28;20229;-70
2023/03/28 22:38:40;;;;;;;1.40;1.10;;;6.90;64.70;;;;;;4976239;28;20673;-69
2023/03/28 22:41:07;;;;;;;1.33;1.23;;;6.90;65.10;;;;;;4989647;28;20338;-69
2023/03/28 22:43:41;;;;;;;1.52;1.35;;;6.80;79.40;;;;;;4989993;28;20299;-69
2023/03/28 22:46:11;;;;;;;1.10;1.02;;;6.90;65.60;;;;;;4989495;28;20756;-70
2023/03/28 22:48:40;;;;;;;0.40;0.40;;;;;;;;;;4989363;28;20203;-70
2023/03/28 22:51:10;;;;;;;0.85;0.82;;;6.70;74.00;;;;;;4989643;28;20229;-69
2023/03/28 22:53:40;;;;;;;0.60;0.45;;;6.50;78.40;;;;;;4989186;28;20222;-69
2023/03/28 22:56:08;;;;;;;0.55;0.55;;;6.30;81.90;;;;;;4988333;28;20226;-70
2023/03/28 22:58:35;;;;;;;0.63;0.63;;;6.20;86.10;;;;;;4988789;28;20213;-69
2023/03/28 23:01:03;;;;;;;0.52;0.52;;;6.20;88.70;;;;;;4989545;28;20226;-70
2023/03/28 23:03:32;;;;;;;1.85;1.75;;;6.20;90.90;;;;;;4989192;28;20234;-70
2023/03/28 23:06:05;;;;;;;0.60;0.60;;;6.10;91.80;;;;;;4989765;28;20226;-70
2023/03/28 23:08:34;;;;;;;0.90;0.50;;;6.00;92.80;;;;;;4988967;28;20213;-70
2023/03/28 23:11:02;;;;;;;1.23;0.57;;;6.00;92.90;;;;;;4989200;28;20236;-70
2023/03/28 23:13:30;;;;;;;1.15;0.82;;;5.90;94.00;;;;;;4989051;28;20582;-70
2023/03/28 23:15:57;;;;;;;0.90;0.80;;;5.90;94.90;;;;;;4989249;28;20308;-69
2023/03/28 23:18:30;;;;;;;2.38;2.25;;;6.00;95.80;;;;;;4988563;28;20197;-70
2023/03/28 23:20:57;;;;;;;0.63;0.50;;;6.00;96.10;;;;;;4988947;28;20310;-70
2023/03/28 23:23:25;;;;;;;3.53;0.98;;;6.00;97.40;;;;;;4988638;28;20621;-70
2023/03/28 23:25:52;;;;;;;1.38;1.02;;;6.10;97.80;;;;;;4988452;28;20229;-70
2023/03/28 23:28:19;;;;;;;0.93;0.85;;;6.10;97.60;;;;;;4988562;28;20198;-69
2023/03/28 23:30:46;;;;;;;0.40;0.30;;;6.10;98.40;;;;;;4988758;28;20228;-70
2023/03/28 23:33:14;;;;;;;0.75;0.75;;;6.00;99.40;;;;;;4988241;28;20217;-69
